createdAt,value
2018-09-02T00:00:41.758Z,16.13
2018-09-02T00:03:10.444Z,16.05
2018-09-02T00:05:38.763Z,15.95
2018-09-02T00:08:07.039Z,15.80
2018-09-02T00:10:35.345Z,15.75
2018-09-02T00:13:03.617Z,15.66
2018-09-02T00:15:31.920Z,15.69
2018-09-02T00:18:00.169Z,15.53
2018-09-02T00:20:28.541Z,15.42
2018-09-02T00:22:56.821Z,15.40
2018-09-02T00:25:26.130Z,15.36
2018-09-02T00:27:54.401Z,15.27
2018-09-02T00:30:23.701Z,15.43
2018-09-02T00:32:51.981Z,15.35
2018-09-02T00:35:20.257Z,15.33
2018-09-02T00:37:48.558Z,15.26
2018-09-02T00:40:16.826Z,15.18
2018-09-02T00:42:45.148Z,15.14
2018-09-02T00:45:13.537Z,15.10
2018-09-02T00:47:42.191Z,15.04
2018-09-02T00:50:10.466Z,15.00
2018-09-02T00:52:39.125Z,15.00
2018-09-02T00:55:07.557Z,15.02
2018-09-02T00:57:35.845Z,14.95
2018-09-02T01:00:04.273Z,14.86
2018-09-02T01:02:32.578Z,14.87
2018-09-02T01:05:00.887Z,14.86
2018-09-02T01:07:29.263Z,14.79
2018-09-02T01:09:57.540Z,14.71
2018-09-02T01:12:26.932Z,14.66
2018-09-02T01:14:55.413Z,14.62
2018-09-02T01:17:23.692Z,14.57
2018-09-02T01:19:52.067Z,14.61
2018-09-02T01:22:20.380Z,14.69
2018-09-02T01:24:49.746Z,14.60
2018-09-02T01:27:18.052Z,14.67
2018-09-02T01:29:46.317Z,14.59
2018-09-02T01:32:15.249Z,14.52
2018-09-02T01:34:43.537Z,14.63
2018-09-02T01:37:11.821Z,14.66
2018-09-02T01:39:40.373Z,14.63
2018-09-02T01:42:08.678Z,14.59
2018-09-02T01:44:36.983Z,14.57
2018-09-02T01:47:05.318Z,14.51
2018-09-02T01:49:33.614Z,14.45
2018-09-02T01:52:02.941Z,14.40
2018-09-02T01:54:31.266Z,14.44
2018-09-02T01:56:59.568Z,14.41
2018-09-02T01:59:27.887Z,14.49
2018-09-02T02:01:56.362Z,14.39
2018-09-02T02:04:27.101Z,14.33
2018-09-02T02:06:55.377Z,14.28
2018-09-02T02:09:23.669Z,14.26
2018-09-02T02:11:52.022Z,14.24
2018-09-02T02:14:20.341Z,14.27
2018-09-02T02:16:48.629Z,14.36
2018-09-02T02:19:16.934Z,14.31
2018-09-02T02:21:45.213Z,14.29
2018-09-02T02:24:13.526Z,14.21
2018-09-02T02:26:42.921Z,14.19
2018-09-02T02:29:11.413Z,14.18
2018-09-02T02:31:39.674Z,14.05
2018-09-02T02:34:08.068Z,14.15
2018-09-02T02:36:36.633Z,14.19
2018-09-02T02:39:08.017Z,14.13
2018-09-02T02:41:36.312Z,14.09
2018-09-02T02:44:04.624Z,14.08
2018-09-02T02:46:32.930Z,14.07
2018-09-02T02:49:01.205Z,14.02
2018-09-02T02:51:29.509Z,13.95
2018-09-02T02:53:57.802Z,13.96
2018-09-02T02:56:27.137Z,14.02
2018-09-02T02:58:55.627Z,14.00
2018-09-02T03:01:23.904Z,13.93
2018-09-02T03:03:52.219Z,13.92
2018-09-02T03:06:20.493Z,13.84
2018-09-02T03:08:48.761Z,13.87
2018-09-02T03:11:17.046Z,13.87
2018-09-02T03:13:45.310Z,13.82
2018-09-02T03:16:13.583Z,13.79
2018-09-02T03:18:41.859Z,13.79
2018-09-02T03:21:10.163Z,13.76
2018-09-02T03:23:38.450Z,13.73
2018-09-02T03:26:06.782Z,13.78
2018-09-02T03:28:35.051Z,13.76
2018-09-02T03:31:03.360Z,13.78
2018-09-02T03:33:31.806Z,13.78
2018-09-02T03:36:00.057Z,13.76
2018-09-02T03:38:28.341Z,13.70
2018-09-02T03:40:56.677Z,13.75
2018-09-02T03:43:25.009Z,13.82
2018-09-02T03:45:53.268Z,13.76
2018-09-02T03:48:21.550Z,13.78
2018-09-02T03:50:49.821Z,13.72
2018-09-02T03:53:18.182Z,13.64
2018-09-02T03:55:46.448Z,13.68
2018-09-02T03:58:14.740Z,13.60
2018-09-02T04:00:42.991Z,13.66
2018-09-02T04:03:11.257Z,13.66
2018-09-02T04:05:39.513Z,13.59
2018-09-02T04:08:07.782Z,13.45
2018-09-02T04:10:36.037Z,13.55
2018-09-02T04:13:04.346Z,13.53
2018-09-02T04:15:32.591Z,13.51
2018-09-02T04:18:00.899Z,13.48
2018-09-02T04:20:32.786Z,13.57
2018-09-02T04:23:01.058Z,13.53
2018-09-02T04:25:29.456Z,13.58
2018-09-02T04:27:57.728Z,13.51
2018-09-02T04:30:26.038Z,13.47
2018-09-02T04:32:54.310Z,13.49
2018-09-02T04:35:22.805Z,13.45
2018-09-02T04:37:51.076Z,13.46
2018-09-02T04:40:19.556Z,13.35
2018-09-02T04:42:47.858Z,13.51
2018-09-02T04:45:16.266Z,13.53
2018-09-02T04:47:44.701Z,13.58
2018-09-02T04:50:16.077Z,13.54
2018-09-02T04:52:44.347Z,13.62
2018-09-02T04:55:12.661Z,13.64
2018-09-02T04:57:41.769Z,13.70
2018-09-02T05:00:10.189Z,13.65
2018-09-02T05:02:39.433Z,13.70
2018-09-02T05:05:07.753Z,13.74
2018-09-02T05:07:36.413Z,13.80
2018-09-02T05:10:05.571Z,13.85
2018-09-02T05:12:33.851Z,13.80
2018-09-02T05:15:02.109Z,13.79
2018-09-02T05:17:31.825Z,13.87
2018-09-02T05:20:00.109Z,14.05
2018-09-02T05:22:28.788Z,14.05
2018-09-02T05:24:57.059Z,14.29
2018-09-02T05:27:25.369Z,14.24
2018-09-02T05:29:53.706Z,14.32
2018-09-02T05:32:22.383Z,14.44
2018-09-02T05:34:50.629Z,14.50
2018-09-02T05:37:19.249Z,14.65
2018-09-02T05:39:48.579Z,14.68
2018-09-02T05:42:16.873Z,14.84
2018-09-02T05:44:45.132Z,14.90
2018-09-02T05:47:13.413Z,14.90
2018-09-02T05:49:41.710Z,15.08
2018-09-02T05:52:09.981Z,15.29
2018-09-02T05:54:38.237Z,15.42
2018-09-02T05:57:06.521Z,15.44
2018-09-02T05:59:34.793Z,15.61
2018-09-02T06:02:03.583Z,15.85
2018-09-02T06:04:31.847Z,15.94
2018-09-02T06:07:00.122Z,16.08
2018-09-02T06:09:28.425Z,16.32
2018-09-02T06:11:56.711Z,16.66
2018-09-02T06:14:26.029Z,17.04
2018-09-02T06:16:54.321Z,17.11
2018-09-02T06:19:22.605Z,17.10
2018-09-02T06:21:50.885Z,17.11
2018-09-02T06:24:19.197Z,17.20
2018-09-02T06:26:47.476Z,17.20
2018-09-02T06:29:15.766Z,17.34
2018-09-02T06:31:44.017Z,17.55
2018-09-02T06:34:12.312Z,17.74
2018-09-02T06:36:40.597Z,17.83
2018-09-02T06:39:10.836Z,18.01
2018-09-02T06:41:39.122Z,18.02
2018-09-02T06:44:07.405Z,18.36
2018-09-02T06:46:35.841Z,18.85
2018-09-02T06:49:04.243Z,19.34
2018-09-02T06:51:32.517Z,19.75
2018-09-02T06:54:00.788Z,19.65
2018-09-02T06:56:29.109Z,19.51
2018-09-02T06:58:58.437Z,19.47
2018-09-02T07:01:26.724Z,19.44
2018-09-02T07:03:55.001Z,19.54
2018-09-02T07:06:23.289Z,19.55
2018-09-02T07:08:51.623Z,19.60
2018-09-02T07:11:19.939Z,19.86
2018-09-02T07:13:49.532Z,19.81
2018-09-02T07:16:17.807Z,19.77
2018-09-02T07:18:46.069Z,19.77
2018-09-02T07:21:14.360Z,19.65
2018-09-02T07:23:42.741Z,19.35
2018-09-02T07:26:11.033Z,19.58
2018-09-02T07:28:39.369Z,19.50
2018-09-02T07:31:07.692Z,19.51
2018-09-02T07:33:36.005Z,19.64
2018-09-02T07:36:04.300Z,19.85
2018-09-02T07:38:32.605Z,19.90
2018-09-02T07:41:00.938Z,20.20
2018-09-02T07:43:29.286Z,20.01
2018-09-02T07:45:57.509Z,19.40
2018-09-02T07:48:25.793Z,19.15
2018-09-02T07:50:54.049Z,19.35
2018-09-02T07:53:22.330Z,19.75
2018-09-02T07:55:50.578Z,19.65
2018-09-02T07:58:18.881Z,19.38
2018-09-02T08:00:47.214Z,20.03
2018-09-02T08:03:15.497Z,20.29
2018-09-02T08:05:43.753Z,20.17
2018-09-02T08:08:12.031Z,19.74
2018-09-02T08:10:41.283Z,19.61
2018-09-02T08:13:09.586Z,19.57
2018-09-02T08:15:37.845Z,19.20
2018-09-02T08:18:06.134Z,19.71
2018-09-02T08:20:34.381Z,20.13
2018-09-02T08:23:02.686Z,20.51
2018-09-02T08:25:31.309Z,20.48
2018-09-02T08:27:59.581Z,20.66
2018-09-02T08:30:27.849Z,20.80
2018-09-02T08:32:58.159Z,20.51
2018-09-02T08:35:26.405Z,21.19
2018-09-02T08:37:54.654Z,20.99
2018-09-02T08:40:22.977Z,20.76
2018-09-02T08:42:51.256Z,20.86
2018-09-02T08:45:19.561Z,20.74
2018-09-02T08:47:47.808Z,20.40
2018-09-02T08:50:16.109Z,20.18
2018-09-02T08:52:44.421Z,20.81
2018-09-02T08:55:12.641Z,20.85
2018-09-02T08:57:40.890Z,21.47
2018-09-02T09:00:09.661Z,21.71
2018-09-02T09:02:37.919Z,21.55
2018-09-02T09:05:06.194Z,21.76
2018-09-02T09:07:34.642Z,21.53
2018-09-02T09:10:03.273Z,21.14
2018-09-02T09:12:31.528Z,21.03
2018-09-02T09:14:59.798Z,20.84
2018-09-02T09:17:28.054Z,20.19
2018-09-02T09:19:56.338Z,20.62
2018-09-02T09:22:24.617Z,20.56
2018-09-02T09:24:52.882Z,20.73
2018-09-02T09:27:21.152Z,20.51
2018-09-02T09:29:49.413Z,20.48
2018-09-02T09:32:17.760Z,20.16
2018-09-02T09:34:45.953Z,19.86
2018-09-02T09:37:15.281Z,20.57
2018-09-02T09:39:43.526Z,20.75
2018-09-02T09:42:11.837Z,20.85
2018-09-02T09:44:40.089Z,21.01
2018-09-02T09:47:08.350Z,21.24
2018-09-02T09:49:38.050Z,21.40
2018-09-02T09:52:06.945Z,21.19
2018-09-02T09:54:35.405Z,21.64
2018-09-02T09:57:03.680Z,21.48
2018-09-02T09:59:31.949Z,21.77
2018-09-02T10:02:00.246Z,21.39
2018-09-02T10:04:28.509Z,21.19
2018-09-02T10:06:56.787Z,21.01
2018-09-02T10:09:25.077Z,21.11
2018-09-02T10:11:53.436Z,21.51
2018-09-02T10:14:21.629Z,21.15
2018-09-02T10:16:49.905Z,20.83
2018-09-02T10:19:18.185Z,20.65
2018-09-02T10:21:46.461Z,20.32
2018-09-02T10:24:14.737Z,20.61
2018-09-02T10:26:42.995Z,20.74
2018-09-02T10:29:11.284Z,20.71
2018-09-02T10:31:39.541Z,20.63
2018-09-02T10:34:07.833Z,21.15
2018-09-02T10:36:36.112Z,21.52
2018-09-02T10:39:06.673Z,21.48
2018-09-02T10:41:35.197Z,21.56
2018-09-02T10:44:03.359Z,21.54
2018-09-02T10:46:31.613Z,21.27
2018-09-02T10:48:59.925Z,21.27
2018-09-02T10:51:28.187Z,21.39
2018-09-02T10:53:56.465Z,21.53
2018-09-02T10:56:24.883Z,21.51
2018-09-02T10:58:53.159Z,21.63
2018-09-02T11:01:21.414Z,21.49
2018-09-02T11:03:49.696Z,21.08
2018-09-02T11:06:17.989Z,20.95
2018-09-02T11:08:46.318Z,21.16
2018-09-02T11:11:14.589Z,20.84
2018-09-02T11:13:42.894Z,21.14
2018-09-02T11:16:11.109Z,21.12
2018-09-02T11:18:39.557Z,21.59
2018-09-02T11:21:07.823Z,22.56
2018-09-02T11:23:37.166Z,22.43
2018-09-02T11:26:05.473Z,22.81
2018-09-02T11:28:33.719Z,22.45
2018-09-02T11:31:01.994Z,22.54
2018-09-02T11:33:30.330Z,22.94
2018-09-02T11:35:59.705Z,23.15
2018-09-02T11:38:28.066Z,23.68
2018-09-02T11:40:56.345Z,23.49
2018-09-02T11:43:24.631Z,22.90
2018-09-02T11:45:52.901Z,22.83
2018-09-02T11:48:21.133Z,23.00
2018-09-02T11:50:50.493Z,23.64
2018-09-02T11:53:19.329Z,23.35
2018-09-02T11:55:47.596Z,23.17
2018-09-02T11:58:15.895Z,22.87
2018-09-02T12:00:44.194Z,22.67
2018-09-02T12:03:12.797Z,22.58
2018-09-02T12:05:41.194Z,22.61
2018-09-02T12:08:09.429Z,22.31
2018-09-02T12:10:37.697Z,22.26
2018-09-02T12:13:06.317Z,22.14
2018-09-02T12:15:34.562Z,22.18
2018-09-02T12:18:02.861Z,22.25
2018-09-02T12:20:31.133Z,22.15
2018-09-02T12:22:59.405Z,22.36
2018-09-02T12:25:27.665Z,22.24
2018-09-02T12:27:55.971Z,22.93
2018-09-02T12:30:24.215Z,23.37
2018-09-02T12:32:53.546Z,23.52
2018-09-02T12:35:21.816Z,23.19
2018-09-02T12:37:50.085Z,23.50
2018-09-02T12:40:18.329Z,23.25
2018-09-02T12:42:46.649Z,23.17
2018-09-02T12:45:14.921Z,22.84
2018-09-02T12:47:43.289Z,22.69
2018-09-02T12:50:11.457Z,23.21
2018-09-02T12:52:39.742Z,22.90
2018-09-02T12:55:09.037Z,22.89
2018-09-02T12:57:37.546Z,22.90
2018-09-02T13:00:06.065Z,22.64
2018-09-02T13:02:34.313Z,22.64
2018-09-02T13:05:02.577Z,22.94
2018-09-02T13:07:30.821Z,22.96
2018-09-02T13:09:59.325Z,22.75
2018-09-02T13:12:28.229Z,22.10
2018-09-02T13:14:56.486Z,22.51
2018-09-02T13:17:25.387Z,22.50
2018-09-02T13:19:53.793Z,22.10
2018-09-02T13:22:23.469Z,22.18
2018-09-02T13:24:52.069Z,22.80
2018-09-02T13:27:20.349Z,23.29
2018-09-02T13:29:48.605Z,23.49
2018-09-02T13:32:16.890Z,24.05
2018-09-02T13:34:45.158Z,25.52
2018-09-02T13:37:13.409Z,25.51
2018-09-02T13:39:41.984Z,26.41
2018-09-02T13:42:10.262Z,25.25
2018-09-02T13:44:38.545Z,24.93
2018-09-02T13:47:06.829Z,24.53
2018-09-02T13:49:35.225Z,23.89
2018-09-02T13:52:03.505Z,23.98
2018-09-02T13:54:31.823Z,23.74
2018-09-02T13:57:00.171Z,24.16
2018-09-02T13:59:28.475Z,24.50
2018-09-02T14:01:56.740Z,24.21
2018-09-02T14:04:25.009Z,23.71
2018-09-02T14:06:53.305Z,22.52
2018-09-02T14:09:21.590Z,22.43
2018-09-02T14:11:49.896Z,22.50
2018-09-02T14:14:18.293Z,22.59
2018-09-02T14:16:46.565Z,22.62
2018-09-02T14:19:14.841Z,22.78
2018-09-02T14:21:43.137Z,25.01
2018-09-02T14:24:11.402Z,26.22
2018-09-02T14:26:39.710Z,25.91
2018-09-02T14:29:08.067Z,25.87
2018-09-02T14:31:37.338Z,24.75
2018-09-02T14:34:05.733Z,23.67
2018-09-02T14:36:34.022Z,23.04
2018-09-02T14:39:02.333Z,23.04
2018-09-02T14:41:30.669Z,23.08
2018-09-02T14:43:58.988Z,23.38
2018-09-02T14:46:27.215Z,23.32
2018-09-02T14:48:55.506Z,23.49
2018-09-02T14:51:23.897Z,23.52
2018-09-02T14:53:52.178Z,23.16
2018-09-02T14:56:20.465Z,23.49
2018-09-02T15:01:38.645Z,24.02
2018-09-02T15:04:06.980Z,23.77
2018-09-02T15:06:35.388Z,22.89
2018-09-02T15:09:05.029Z,22.70
2018-09-02T15:11:33.400Z,23.20
2018-09-02T15:14:01.638Z,25.63
2018-09-02T15:16:29.925Z,25.96
2018-09-02T15:18:58.281Z,25.33
2018-09-02T15:21:26.558Z,24.21
2018-09-02T15:23:54.898Z,22.94
2018-09-02T15:26:23.145Z,22.26
2018-09-02T15:28:51.439Z,22.45
2018-09-02T15:31:19.698Z,25.33
2018-09-02T15:33:48.009Z,29.22
2018-09-02T15:36:16.693Z,31.06
2018-09-02T15:38:45.022Z,30.81
2018-09-02T15:41:13.369Z,31.93
2018-09-02T15:43:41.741Z,32.74
2018-09-02T15:46:10.046Z,32.25
2018-09-02T15:48:38.577Z,32.40
2018-09-02T15:51:06.833Z,34.32
2018-09-02T15:53:35.174Z,35.08
2018-09-02T15:56:03.856Z,33.34
2018-09-02T15:58:32.141Z,33.05
2018-09-02T16:01:00.534Z,34.05
2018-09-02T16:03:28.769Z,35.32
2018-09-02T16:05:57.028Z,34.34
2018-09-02T16:08:25.335Z,31.64
2018-09-02T16:10:53.719Z,30.33
2018-09-02T16:13:21.977Z,31.34
2018-09-02T16:15:50.296Z,30.53
2018-09-02T16:18:18.528Z,28.72
2018-09-02T16:20:46.809Z,25.63
2018-09-02T16:23:15.078Z,24.62
2018-09-02T16:25:43.336Z,24.72
2018-09-02T16:28:11.597Z,23.72
2018-09-02T16:30:39.957Z,24.99
2018-09-02T16:33:08.293Z,27.68
2018-09-02T16:35:36.545Z,26.32
2018-09-02T16:38:04.869Z,24.52
2018-09-02T16:40:33.144Z,24.99
2018-09-02T16:43:01.429Z,28.26
2018-09-02T16:45:29.773Z,29.96
2018-09-02T16:47:58.085Z,27.13
2018-09-02T16:50:26.317Z,24.72
2018-09-02T16:52:54.675Z,23.89
2018-09-02T16:55:22.885Z,22.74
2018-09-02T16:57:52.204Z,22.35
2018-09-02T17:00:20.449Z,22.36
2018-09-02T17:02:50.164Z,22.23
2018-09-02T17:05:22.493Z,22.00
2018-09-02T17:07:51.629Z,21.97
2018-09-02T17:10:20.489Z,21.84
2018-09-02T17:12:49.016Z,21.53
2018-09-02T17:15:17.134Z,21.55
2018-09-02T17:17:45.645Z,21.42
2018-09-02T17:20:19.820Z,21.13
2018-09-02T17:22:48.102Z,21.04
2018-09-02T17:25:16.380Z,20.90
2018-09-02T17:27:44.661Z,20.77
2018-09-02T17:30:12.901Z,20.74
2018-09-02T17:32:41.240Z,20.55
2018-09-02T17:35:09.521Z,20.27
2018-09-02T17:37:37.821Z,20.16
2018-09-02T17:40:06.109Z,20.19
2018-09-02T17:42:36.534Z,20.28
2018-09-02T17:45:04.947Z,20.24
2018-09-02T17:47:33.215Z,20.25
2018-09-02T17:50:01.465Z,20.07
2018-09-02T17:52:29.753Z,20.06
2018-09-02T17:54:58.148Z,20.00
2018-09-02T17:57:26.586Z,19.64
2018-09-02T17:59:54.893Z,19.66
2018-09-02T18:02:23.254Z,19.65
2018-09-02T18:04:51.812Z,19.67
2018-09-02T18:07:20.115Z,19.73
2018-09-02T18:09:48.449Z,19.66
2018-09-02T18:12:16.710Z,19.62
2018-09-02T18:14:46.094Z,19.45
2018-09-02T18:17:14.348Z,19.37
2018-09-02T18:19:43.644Z,19.40
2018-09-02T18:22:11.937Z,19.28
2018-09-02T18:24:40.217Z,19.22
2018-09-02T18:27:08.822Z,19.07
2018-09-02T18:29:37.157Z,19.11
2018-09-02T18:32:05.634Z,19.02
2018-09-02T18:34:33.985Z,19.11
2018-09-02T18:37:02.337Z,19.03
2018-09-02T18:39:30.787Z,18.99
2018-09-02T18:41:59.718Z,18.88
2018-09-02T18:44:28.849Z,18.85
2018-09-02T18:46:57.194Z,18.96
2018-09-02T18:49:25.505Z,19.00
2018-09-02T18:51:53.837Z,18.76
2018-09-02T18:54:22.186Z,18.73
2018-09-02T18:56:50.373Z,18.70
2018-09-02T18:59:18.741Z,18.83
2018-09-02T19:01:47.033Z,18.74
2018-09-02T19:04:15.276Z,19.05
2018-09-02T19:06:43.701Z,18.86
2018-09-02T19:09:14.152Z,18.83
2018-09-02T19:11:42.496Z,18.69
2018-09-02T19:14:10.753Z,18.68
2018-09-02T19:16:41.333Z,18.62
2018-09-02T19:19:09.993Z,18.60
2018-09-02T19:21:38.329Z,18.68
2018-09-02T19:24:06.885Z,18.88
2018-09-02T19:26:35.246Z,18.79
2018-09-02T19:29:03.516Z,18.67
2018-09-02T19:31:31.821Z,18.59
2018-09-02T19:34:00.165Z,18.53
2018-09-02T19:36:28.457Z,18.50
2018-09-02T19:38:56.786Z,18.57
2018-09-02T19:41:25.041Z,18.52
2018-09-02T19:43:53.370Z,18.51
2018-09-02T19:46:21.836Z,18.47
2018-09-02T19:48:50.193Z,18.49
2018-09-02T19:51:18.546Z,18.47
2018-09-02T19:53:46.826Z,18.57
2018-09-02T19:56:15.088Z,18.45
2018-09-02T19:58:43.497Z,18.48
2018-09-02T20:01:11.776Z,18.52
2018-09-02T20:03:40.250Z,18.52
2018-09-02T20:06:08.620Z,18.54
2018-09-02T20:08:36.906Z,18.54
2018-09-02T20:11:05.214Z,18.59
2018-09-02T20:13:33.537Z,18.66
2018-09-02T20:16:01.794Z,18.62
2018-09-02T20:18:30.196Z,18.67
2018-09-02T20:20:58.610Z,18.57
2018-09-02T20:23:26.975Z,18.59
2018-09-02T20:25:55.249Z,18.57
2018-09-02T20:28:23.554Z,18.66
2018-09-02T20:30:51.845Z,18.59
2018-09-02T20:33:21.216Z,18.55
2018-09-02T20:35:49.553Z,18.63
2018-09-02T20:38:17.841Z,18.59
2018-09-02T20:40:46.101Z,18.62
2018-09-02T20:43:14.446Z,18.65
2018-09-02T20:45:42.725Z,18.62
2018-09-02T20:48:12.129Z,18.68
2018-09-02T20:50:40.552Z,18.66
2018-09-02T20:53:08.840Z,18.53
2018-09-02T20:55:38.154Z,18.40
2018-09-02T20:58:06.400Z,18.55
2018-09-02T21:00:34.680Z,18.50
2018-09-02T21:03:03.069Z,18.36
2018-09-02T21:05:31.383Z,18.41
2018-09-02T21:07:59.673Z,18.42
2018-09-02T21:10:27.967Z,18.53
2018-09-02T21:12:56.290Z,18.55
2018-09-02T21:15:24.673Z,18.60
2018-09-02T21:17:53.415Z,18.52
2018-09-02T21:20:21.669Z,18.48
2018-09-02T21:22:49.963Z,18.45
2018-09-02T21:25:18.244Z,18.46
2018-09-02T21:27:46.537Z,18.44
2018-09-02T21:30:14.799Z,18.39
2018-09-02T21:32:43.078Z,18.17
2018-09-02T21:35:11.511Z,18.26
2018-09-02T21:37:39.878Z,18.23
2018-09-02T21:40:08.149Z,18.16
2018-09-02T21:42:36.453Z,18.17
2018-09-02T21:45:04.766Z,18.21
2018-09-02T21:47:33.042Z,18.20
2018-09-02T21:50:01.343Z,18.27
2018-09-02T21:52:29.641Z,18.33
2018-09-02T21:54:57.993Z,18.35
2018-09-02T21:57:26.302Z,18.30
2018-09-02T21:59:54.668Z,18.22
2018-09-02T22:02:23.089Z,18.14
2018-09-02T22:04:51.495Z,18.11
2018-09-02T22:07:19.825Z,18.12
2018-09-02T22:09:48.125Z,18.13
2018-09-02T22:12:16.384Z,18.17
2018-09-02T22:14:44.675Z,18.18
2018-09-02T22:17:12.953Z,18.12
2018-09-02T22:19:41.249Z,18.02
2018-09-02T22:22:09.617Z,18.09
2018-09-02T22:24:37.913Z,17.99
2018-09-02T22:27:06.553Z,18.03
2018-09-02T22:29:36.001Z,17.99
2018-09-02T22:32:04.357Z,18.02
2018-09-02T22:34:32.866Z,18.02
2018-09-02T22:37:01.117Z,17.94
2018-09-02T22:39:29.432Z,17.98
2018-09-02T22:41:57.895Z,17.98
2018-09-02T22:44:26.152Z,17.97
2018-09-02T22:46:54.516Z,18.01
2018-09-02T22:49:22.829Z,18.03
2018-09-02T22:51:53.112Z,17.93
2018-09-02T22:54:21.550Z,18.08
2018-09-02T22:56:49.942Z,18.03
2018-09-02T22:59:18.210Z,18.17
2018-09-02T23:01:46.529Z,18.15
2018-09-02T23:04:15.953Z,18.16
2018-09-02T23:06:44.240Z,18.04
2018-09-02T23:09:12.495Z,18.05
2018-09-02T23:11:40.789Z,18.08
2018-09-02T23:14:09.093Z,18.09
2018-09-02T23:16:37.502Z,18.08
2018-09-02T23:19:05.765Z,18.00
2018-09-02T23:21:34.045Z,18.07
2018-09-02T23:24:02.324Z,18.00
2018-09-02T23:26:30.793Z,18.09
2018-09-02T23:28:59.101Z,18.14
2018-09-02T23:31:27.427Z,18.11
2018-09-02T23:33:55.676Z,18.15
2018-09-02T23:36:23.973Z,18.29
2018-09-02T23:38:52.237Z,18.31
2018-09-02T23:41:20.536Z,18.21
2018-09-02T23:43:48.828Z,18.27
2018-09-02T23:46:17.125Z,18.25
2018-09-02T23:48:45.396Z,18.20
2018-09-02T23:51:13.670Z,18.33
2018-09-02T23:53:41.977Z,18.23
2018-09-02T23:56:10.240Z,18.31
2018-09-02T23:58:38.545Z,18.32
